SVW25 TXKF-LPLA
Flight info
| Callsign | SVW25 |
|---|---|
| Flight time | N/A |
| Altitude | 37000 |
| Route | BORNN1 BALOO DCT 35N060W 37N055W 38N050W/M090F390 39N045W 40N040W 40N035W DCT FRS DCT LM |
| Aircraft | C750/M-SBDE3FGHRWXY/S |
Departure
| Time | N/A |
|---|---|
| Airport | L.F. Wade International Airport (TXKF) |
Arrival
| Time | 2026-04-16 12:36 |
|---|---|
| Airport | Lajes Airport (LPLA) |
| Time | Latitude | Longitude | Altitude | Speed | Heading |
|---|---|---|---|---|---|
| 2026-04-16 12:23 | 38.99987 | -27.08199 | 25379 ft | 452 kts | 360° |
| 2026-04-16 12:23 | 39.03071 | -27.08168 | 24220 ft | 436 kts | 350° |
| 2026-04-16 12:23 | 39.05964 | -27.08763 | 22985 ft | 421 kts | 340° |
| 2026-04-16 12:23 | 39.08719 | -27.09948 | 21810 ft | 404 kts | 331° |
| 2026-04-16 12:24 | 39.11119 | -27.11529 | 20773 ft | 386 kts | 323° |
| 2026-04-16 12:24 | 39.13262 | -27.13520 | 19612 ft | 374 kts | 315° |
| 2026-04-16 12:24 | 39.15124 | -27.15842 | 18499 ft | 363 kts | 307° |
| 2026-04-16 12:24 | 39.16629 | -27.18333 | 17270 ft | 353 kts | 300° |
| 2026-04-16 12:25 | 39.17849 | -27.21042 | 16057 ft | 346 kts | 293° |
| 2026-04-16 12:25 | 39.18757 | -27.23870 | 14922 ft | 339 kts | 287° |
| 2026-04-16 12:25 | 39.19363 | -27.26786 | 13772 ft | 335 kts | 280° |
| 2026-04-16 12:25 | 39.19668 | -27.29738 | 12620 ft | 329 kts | 273° |
| 2026-04-16 12:26 | 39.19681 | -27.32641 | 11567 ft | 321 kts | 266° |
| 2026-04-16 12:26 | 39.19420 | -27.35479 | 10613 ft | 316 kts | 260° |
| 2026-04-16 12:26 | 39.18921 | -27.38110 | 10224 ft | 285 kts | 255° |
| 2026-04-16 12:26 | 39.18263 | -27.40429 | 9980 ft | 264 kts | 249° |
| 2026-04-16 12:27 | 39.17480 | -27.42527 | 9340 ft | 259 kts | 244° |
| 2026-04-16 12:27 | 39.16528 | -27.44513 | 8634 ft | 258 kts | 238° |
| 2026-04-16 12:27 | 39.15444 | -27.46340 | 7992 ft | 256 kts | 233° |
| 2026-04-16 12:27 | 39.14235 | -27.48008 | 7360 ft | 255 kts | 228° |
| 2026-04-16 12:28 | 39.12903 | -27.49516 | 6729 ft | 255 kts | 223° |
| 2026-04-16 12:28 | 39.11468 | -27.50843 | 6092 ft | 254 kts | 218° |
| 2026-04-16 12:28 | 39.09943 | -27.51980 | 5454 ft | 253 kts | 212° |
| 2026-04-16 12:28 | 39.08347 | -27.52902 | 4843 ft | 251 kts | 205° |
| 2026-04-16 12:29 | 39.06581 | -27.53177 | 4148 ft | 260 kts | 182° |
| 2026-04-16 12:29 | 39.04840 | -27.52558 | 3584 ft | 266 kts | 160° |
| 2026-04-16 12:29 | 39.03341 | -27.51006 | 3112 ft | 286 kts | 135° |
| 2026-04-16 12:29 | 39.02323 | -27.48883 | 3152 ft | 272 kts | 124° |
| 2026-04-16 12:30 | 39.01420 | -27.46766 | 3152 ft | 270 kts | 123° |
| 2026-04-16 12:30 | 39.00504 | -27.44619 | 3155 ft | 275 kts | 123° |
| 2026-04-16 12:30 | 38.99572 | -27.42459 | 3148 ft | 278 kts | 123° |
| 2026-04-16 12:30 | 38.98634 | -27.40286 | 3153 ft | 279 kts | 123° |
| 2026-04-16 12:31 | 38.97695 | -27.38104 | 3153 ft | 279 kts | 123° |
| 2026-04-16 12:31 | 38.96754 | -27.35921 | 3153 ft | 279 kts | 123° |
| 2026-04-16 12:31 | 38.95818 | -27.33747 | 3141 ft | 277 kts | 123° |
| 2026-04-16 12:31 | 38.94881 | -27.31579 | 3135 ft | 277 kts | 123° |
| 2026-04-16 12:32 | 38.93944 | -27.29412 | 3140 ft | 278 kts | 123° |
| 2026-04-16 12:32 | 38.93004 | -27.27249 | 3137 ft | 278 kts | 124° |
| 2026-04-16 12:32 | 38.91776 | -27.25400 | 3121 ft | 268 kts | 146° |
| 2026-04-16 12:32 | 38.90309 | -27.23910 | 3159 ft | 270 kts | 147° |
| 2026-04-16 12:33 | 38.88861 | -27.22383 | 3151 ft | 267 kts | 145° |
| 2026-04-16 12:33 | 38.87489 | -27.20912 | 3134 ft | 245 kts | 145° |
| 2026-04-16 12:33 | 38.86236 | -27.19594 | 3109 ft | 222 kts | 146° |
| 2026-04-16 12:33 | 38.85107 | -27.18415 | 3052 ft | 197 kts | 147° |
| 2026-04-16 12:34 | 38.84083 | -27.17341 | 2598 ft | 182 kts | 147° |
| 2026-04-16 12:34 | 38.83081 | -27.16302 | 1531 ft | 189 kts | 147° |
| 2026-04-16 12:34 | 38.82115 | -27.15223 | 1032 ft | 176 kts | 138° |
| 2026-04-16 12:34 | 38.81333 | -27.14234 | 1043 ft | 136 kts | 145° |
| 2026-04-16 12:35 | 38.80621 | -27.13520 | 831 ft | 132 kts | 147° |
| 2026-04-16 12:35 | 38.79898 | -27.12789 | 626 ft | 128 kts | 149° |
| 2026-04-16 12:35 | 38.79197 | -27.12152 | 537 ft | 126 kts | 150° |
| 2026-04-16 12:35 | 38.78487 | -27.11469 | 418 ft | 130 kts | 148° |
| 2026-04-16 12:36 | 38.77766 | -27.10715 | 243 ft | 135 kts | 144° |
| 2026-04-16 12:36 | 38.77072 | -27.09981 | 177 ft | 115 kts | 146° |
| 2026-04-16 12:36 | 38.76545 | -27.09460 | 176 ft | 71 kts | 141° |
| 2026-04-16 12:36 | 38.76288 | -27.09186 | 175 ft | 28 kts | 138° |
| 2026-04-16 12:37 | 38.76240 | -27.09090 | 176 ft | 10 kts | 68° |
| 2026-04-16 12:37 | 38.76252 | -27.09072 | 175 ft | 0 kts | 43° |
| 2026-04-16 12:37 | 38.76251 | -27.09069 | 175 ft | 0 kts | 87° |
| 2026-04-16 12:37 | 38.76217 | -27.09048 | 176 ft | 17 kts | 154° |
| 2026-04-16 12:38 | 38.76042 | -27.08920 | 177 ft | 32 kts | 147° |
| 2026-04-16 12:38 | 38.75883 | -27.08892 | 176 ft | 20 kts | 185° |
| 2026-04-16 12:38 | 38.75775 | -27.08898 | 175 ft | 10 kts | 181° |
| 2026-04-16 12:38 | 38.75750 | -27.08899 | 175 ft | 0 kts | 182° |
| 2026-04-16 12:39 | 38.75743 | -27.08884 | 175 ft | 7 kts | 120° |
| 2026-04-16 12:39 | 38.75684 | -27.08798 | 175 ft | 14 kts | 139° |
| 2026-04-16 12:39 | 38.75617 | -27.08724 | 175 ft | 12 kts | 140° |
| 2026-04-16 12:39 | 38.75594 | -27.08716 | 175 ft | 1 kts | 263° |
| 2026-04-16 12:40 | 38.75596 | -27.08734 | 175 ft | 0 kts | 275° |